Time,TemperatureF,DewpointF,PressureIn,WindDirection,WindDirectionDegrees,WindSpeedMPH,WindSpeedGustMPH,Humidity,HourlyPrecipIn,Conditions,Clouds,dailyrainin,SoftwareType,DateUTC
2013-02-28 00:08:00,51.5,-99.9,30.37,NE,50,0.0,-999.0,0,-99.99,,,0.00,weatherlink.com 1.10,2013-02-28 08:08:00,
2013-02-28 00:23:00,51.5,-99.9,30.37,NE,50,0.0,-999.0,0,-99.99,,,0.00,weatherlink.com 1.10,2013-02-28 08:23:00,
2013-02-28 00:38:00,51.2,-99.9,30.37,NE,50,0.0,-999.0,0,-99.99,,,0.00,weatherlink.com 1.10,2013-02-28 08:38:00,
2013-02-28 00:53:00,51.0,-99.9,30.37,NE,50,3.0,-999.0,0,-99.99,,,0.00,weatherlink.com 1.10,2013-02-28 08:53:00,
2013-02-28 01:08:00,50.8,-99.9,30.38,NE,54,2.0,-999.0,0,-99.99,,,0.00,weatherlink.com 1.10,2013-02-28 09:08:00,
2013-02-28 01:23:00,50.5,-99.9,30.38,NE,54,3.0,-999.0,0,-99.99,,,0.00,weatherlink.com 1.10,2013-02-28 09:23:00,
2013-02-28 01:38:00,50.5,-99.9,30.39,ENE,59,3.0,-999.0,0,-99.99,,,0.00,weatherlink.com 1.10,2013-02-28 09:38:00,
2013-02-28 01:53:00,51.3,-99.9,30.39,ENE,58,0.0,-999.0,0,-99.99,,,0.00,weatherlink.com 1.10,2013-02-28 09:53:00,
2013-02-28 02:08:00,51.4,-99.9,30.39,ENE,58,3.0,-999.0,0,-99.99,,,0.00,weatherlink.com 1.10,2013-02-28 10:08:00,
2013-02-28 02:23:00,51.4,-99.9,30.39,ENE,57,0.0,-999.0,0,-99.99,,,0.00,weatherlink.com 1.10,2013-02-28 10:23:00,
2013-02-28 02:38:00,51.5,-99.9,30.39,NE,39,2.0,-999.0,0,-99.99,,,0.00,weatherlink.com 1.10,2013-02-28 10:38:00,
2013-02-28 02:53:00,51.9,-99.9,30.38,NNE,20,0.0,-999.0,0,-99.99,,,0.00,weatherlink.com 1.10,2013-02-28 10:53:00,
2013-02-28 03:08:00,51.8,-99.9,30.38,NE,53,4.0,-999.0,0,-99.99,,,0.00,weatherlink.com 1.10,2013-02-28 11:08:00,
2013-02-28 03:23:00,51.2,-99.9,30.38,ENE,59,3.0,-999.0,0,-99.99,,,0.00,weatherlink.com 1.10,2013-02-28 11:23:00,
2013-02-28 03:38:00,51.3,-99.9,30.38,ENE,69,0.0,-999.0,0,-99.99,,,0.00,weatherlink.com 1.10,2013-02-28 11:38:00,
2013-02-28 03:53:00,51.2,-99.9,30.38,NE,42,2.0,-999.0,0,-99.99,,,0.00,weatherlink.com 1.10,2013-02-28 11:53:00,
2013-02-28 04:08:00,51.1,-99.9,30.39,NE,40,1.0,-999.0,0,-99.99,,,0.00,weatherlink.com 1.10,2013-02-28 12:08:00,
2013-02-28 04:23:00,51.3,-99.9,30.39,ENE,68,5.0,-999.0,0,-99.99,,,0.00,weatherlink.com 1.10,2013-02-28 12:23:00,
2013-02-28 04:38:00,51.3,-99.9,30.39,NE,41,3.0,-999.0,0,-99.99,,,0.00,weatherlink.com 1.10,2013-02-28 12:38:00,
2013-02-28 04:53:00,51.0,-99.9,30.39,NE,41,2.0,-999.0,0,-99.99,,,0.00,weatherlink.com 1.10,2013-02-28 12:53:00,
2013-02-28 05:08:00,51.1,-99.9,30.40,NE,50,3.0,-999.0,0,-99.99,,,0.00,weatherlink.com 1.10,2013-02-28 13:08:00,
2013-02-28 05:23:00,51.3,-99.9,30.40,NE,46,2.0,-999.0,0,-99.99,,,0.00,weatherlink.com 1.10,2013-02-28 13:23:00,
2013-02-28 05:38:00,50.3,-99.9,30.41,NE,53,3.0,-999.0,0,-99.99,,,0.00,weatherlink.com 1.10,2013-02-28 13:38:00,
2013-02-28 05:53:00,50.6,-99.9,30.41,ENE,59,3.0,-999.0,0,-99.99,,,0.00,weatherlink.com 1.10,2013-02-28 13:53:00,
2013-02-28 06:08:00,50.8,-99.9,30.41,NE,41,3.0,-999.0,0,-99.99,,,0.00,weatherlink.com 1.10,2013-02-28 14:08:00,
2013-02-28 06:23:00,48.7,-99.9,30.42,ENE,59,6.0,-999.0,0,-99.99,,,0.00,weatherlink.com 1.10,2013-02-28 14:23:00,
2013-02-28 06:38:00,48.5,-99.9,30.42,ENE,69,3.0,-999.0,0,-99.99,,,0.00,weatherlink.com 1.10,2013-02-28 14:38:00,
2013-02-28 06:53:00,48.5,-99.9,30.41,NNE,25,6.0,-999.0,0,-99.99,,,0.00,weatherlink.com 1.10,2013-02-28 14:53:00,
2013-02-28 07:08:00,48.2,-99.9,30.42,ENE,67,6.0,-999.0,0,-99.99,,,0.00,weatherlink.com 1.10,2013-02-28 15:08:00,
2013-02-28 07:23:00,47.8,-99.9,30.42,ENE,57,4.0,-999.0,0,-99.99,,,0.00,weatherlink.com 1.10,2013-02-28 15:23:00,
2013-02-28 07:38:00,48.1,-99.9,30.43,ENE,62,5.0,-999.0,0,-99.99,,,0.00,weatherlink.com 1.10,2013-02-28 15:38:00,
2013-02-28 07:53:00,49.7,-99.9,30.43,NE,55,3.0,-999.0,0,-99.99,,,0.00,weatherlink.com 1.10,2013-02-28 15:53:00,
2013-02-28 08:08:00,50.9,-99.9,30.44,ENE,62,3.0,-999.0,0,-99.99,,,0.00,weatherlink.com 1.10,2013-02-28 16:08:00,
2013-02-28 08:23:00,51.9,-99.9,30.45,ENE,69,0.0,-999.0,0,-99.99,,,0.00,weatherlink.com 1.10,2013-02-28 16:23:00,
2013-02-28 08:38:00,52.8,-99.9,30.45,ENE,69,0.0,-999.0,0,-99.99,,,0.00,weatherlink.com 1.10,2013-02-28 16:38:00,
2013-02-28 08:53:00,54.4,-99.9,30.44,ENE,69,0.0,-999.0,0,-99.99,,,0.00,weatherlink.com 1.10,2013-02-28 16:53:00,
2013-02-28 09:08:00,56.2,-99.9,30.45,WSW,238,0.0,-999.0,0,-99.99,,,0.00,weatherlink.com 1.10,2013-02-28 17:08:00,
2013-02-28 09:23:00,56.9,-99.9,30.45,SW,232,2.0,-999.0,0,-99.99,,,0.00,weatherlink.com 1.10,2013-02-28 17:23:00,
2013-02-28 09:38:00,58.3,-99.9,30.45,WNW,286,0.0,-999.0,0,-99.99,,,0.00,weatherlink.com 1.10,2013-02-28 17:38:00,
2013-02-28 09:53:00,58.9,-99.9,30.46,WSW,258,3.0,-999.0,0,-99.99,,,0.00,weatherlink.com 1.10,2013-02-28 17:53:00,
2013-02-28 10:08:00,59.2,-99.9,30.47,West,265,1.0,-999.0,0,-99.99,,,0.00,weatherlink.com 1.10,2013-02-28 18:08:00,
2013-02-28 10:23:00,58.9,-99.9,30.47,West,269,6.0,-999.0,0,-99.99,,,0.00,weatherlink.com 1.10,2013-02-28 18:23:00,
2013-02-28 10:38:00,59.3,-99.9,30.47,West,281,2.0,-999.0,0,-99.99,,,0.00,weatherlink.com 1.10,2013-02-28 18:38:00,
2013-02-28 10:53:00,59.0,-99.9,30.47,WSW,238,1.0,-999.0,0,-99.99,,,0.00,weatherlink.com 1.10,2013-02-28 18:53:00,
2013-02-28 11:08:00,60.3,-99.9,30.46,WSW,237,3.0,-999.0,0,-99.99,,,0.00,weatherlink.com 1.10,2013-02-28 19:08:00,
2013-02-28 11:23:00,58.9,-99.9,30.46,WSW,250,3.0,-999.0,0,-99.99,,,0.00,weatherlink.com 1.10,2013-02-28 19:23:00,
2013-02-28 11:38:00,58.6,-99.9,30.46,SW,220,2.0,-999.0,0,-99.99,,,0.00,weatherlink.com 1.10,2013-02-28 19:38:00,
2013-02-28 11:53:00,58.8,-99.9,30.45,SW,228,2.0,-999.0,0,-99.99,,,0.00,weatherlink.com 1.10,2013-02-28 19:53:00,
2013-02-28 12:08:00,56.8,-99.9,30.45,SW,234,4.0,-999.0,0,-99.99,,,0.00,weatherlink.com 1.10,2013-02-28 20:08:00,
2013-02-28 12:23:00,56.0,-99.9,30.45,West,268,4.0,-999.0,0,-99.99,,,0.00,weatherlink.com 1.10,2013-02-28 20:23:00,
2013-02-28 12:38:00,57.0,-99.9,30.45,WSW,238,6.0,-999.0,0,-99.99,,,0.00,weatherlink.com 1.10,2013-02-28 20:38:00,
2013-02-28 12:53:00,56.8,-99.9,30.44,WSW,242,5.0,-999.0,0,-99.99,,,0.00,weatherlink.com 1.10,2013-02-28 20:53:00,
2013-02-28 13:08:00,57.6,-99.9,30.44,WNW,286,3.0,-999.0,0,-99.99,,,0.00,weatherlink.com 1.10,2013-02-28 21:08:00,
2013-02-28 13:23:00,58.5,-99.9,30.43,WNW,296,4.0,-999.0,0,-99.99,,,0.00,weatherlink.com 1.10,2013-02-28 21:23:00,
2013-02-28 13:38:00,60.5,-99.9,30.42,South,182,2.0,-999.0,0,-99.99,,,0.00,weatherlink.com 1.10,2013-02-28 21:38:00,
2013-02-28 13:53:00,61.5,-99.9,30.42,WNW,296,2.0,-999.0,0,-99.99,,,0.00,weatherlink.com 1.10,2013-02-28 21:53:00,
2013-02-28 14:08:00,62.9,-20.0,30.41,West,273,5.0,-999.0,3,-99.99,,,0.00,weatherlink.com 1.10,2013-02-28 22:08:00,
2013-02-28 14:23:00,63.7,-14.0,30.41,West,278,4.0,-999.0,4,-99.99,,,0.00,weatherlink.com 1.10,2013-02-28 22:23:00,
2013-02-28 14:38:00,64.7,16.0,30.40,West,281,8.0,-999.0,15,-99.99,,,0.00,weatherlink.com 1.10,2013-02-28 22:38:00,
2013-02-28 14:53:00,65.4,21.0,30.40,West,261,3.0,-999.0,18,-99.99,,,0.00,weatherlink.com 1.10,2013-02-28 22:53:00,
2013-02-28 15:08:00,63.9,15.0,30.39,West,261,3.0,-999.0,15,-99.99,,,0.00,weatherlink.com 1.10,2013-02-28 23:08:00,
2013-02-28 15:23:00,64.4,16.0,30.40,WSW,255,7.0,-999.0,15,-99.99,,,0.00,weatherlink.com 1.10,2013-02-28 23:23:00,
2013-02-28 15:38:00,64.7,21.0,30.39,WSW,256,5.0,-999.0,19,-99.99,,,0.00,weatherlink.com 1.10,2013-02-28 23:38:00,
2013-02-28 15:53:00,64.1,17.0,30.39,WNW,286,1.0,-999.0,16,-99.99,,,0.00,weatherlink.com 1.10,2013-02-28 23:53:00,
2013-02-28 16:08:00,63.5,15.0,30.39,WNW,286,0.0,-999.0,15,-99.99,,,0.00,weatherlink.com 1.10,2013-03-01 00:08:00,
2013-02-28 16:23:00,63.3,15.0,30.39,WNW,285,5.0,-999.0,15,-99.99,,,0.00,weatherlink.com 1.10,2013-03-01 00:23:00,
2013-02-28 16:38:00,62.7,9.0,30.39,SW,233,0.0,-999.0,12,-99.99,,,0.00,weatherlink.com 1.10,2013-03-01 00:38:00,
2013-02-28 16:53:00,62.6,5.0,30.38,WSW,240,1.0,-999.0,10,-99.99,,,0.00,weatherlink.com 1.10,2013-03-01 00:53:00,
2013-02-28 17:08:00,61.2,-7.0,30.39,WNW,284,2.0,-999.0,6,-99.99,,,0.00,weatherlink.com 1.10,2013-03-01 01:08:00,
2013-02-28 17:23:00,60.3,-99.9,30.38,West,275,2.0,-999.0,-999,-99.99,,,0.00,weatherlink.com 1.10,2013-03-01 01:23:00,
2013-02-28 17:38:00,59.2,-99.9,30.39,West,263,0.0,-999.0,0,-99.99,,,0.00,weatherlink.com 1.10,2013-03-01 01:38:00,
2013-02-28 17:53:00,57.2,-99.9,30.39,WSW,249,0.0,-999.0,0,-99.99,,,0.00,weatherlink.com 1.10,2013-03-01 01:53:00,
2013-02-28 18:08:00,55.7,-99.9,30.39,WSW,249,0.0,-999.0,0,-99.99,,,0.00,weatherlink.com 1.10,2013-03-01 02:08:00,
2013-02-28 18:23:00,54.7,-99.9,30.40,SW,226,1.0,-999.0,0,-99.99,,,0.00,weatherlink.com 1.10,2013-03-01 02:23:00,
2013-02-28 18:38:00,53.3,-99.9,30.41,SSW,211,0.0,-999.0,0,-99.99,,,0.00,weatherlink.com 1.10,2013-03-01 02:38:00,
2013-02-28 18:53:00,52.6,-99.9,30.41,ENE,69,0.0,-999.0,0,-99.99,,,0.00,weatherlink.com 1.10,2013-03-01 02:53:00,
2013-02-28 19:08:00,53.2,-99.9,30.41,ENE,69,0.0,-999.0,0,-99.99,,,0.00,weatherlink.com 1.10,2013-03-01 03:08:00,
2013-02-28 19:23:00,52.4,-99.9,30.42,ENE,69,0.0,-999.0,0,-99.99,,,0.00,weatherlink.com 1.10,2013-03-01 03:23:00,
2013-02-28 19:38:00,51.9,-99.9,30.42,ENE,69,2.0,-999.0,0,-99.99,,,0.00,weatherlink.com 1.10,2013-03-01 03:38:00,
2013-02-28 19:53:00,53.3,-99.9,30.42,NNE,25,0.0,-999.0,0,-99.99,,,0.00,weatherlink.com 1.10,2013-03-01 03:53:00,
2013-02-28 20:08:00,54.2,-99.9,30.43,ENE,58,0.0,-999.0,0,-99.99,,,0.00,weatherlink.com 1.10,2013-03-01 04:08:00,
2013-02-28 20:23:00,55.2,-99.9,30.43,NE,43,3.0,-999.0,0,-99.99,,,0.00,weatherlink.com 1.10,2013-03-01 04:23:00,
2013-02-28 20:38:00,55.1,-99.9,30.43,NE,49,2.0,-999.0,0,-99.99,,,0.00,weatherlink.com 1.10,2013-03-01 04:38:00,
2013-02-28 20:53:00,53.1,-99.9,30.43,NE,50,3.0,-999.0,0,-99.99,,,0.00,weatherlink.com 1.10,2013-03-01 04:53:00,
2013-02-28 21:08:00,53.1,-99.9,30.43,NE,50,2.0,-999.0,0,-99.99,,,0.00,weatherlink.com 1.10,2013-03-01 05:08:00,
2013-02-28 21:23:00,53.2,-99.9,30.44,ENE,61,4.0,-999.0,0,-99.99,,,0.00,weatherlink.com 1.10,2013-03-01 05:23:00,
2013-02-28 21:38:00,52.0,-99.9,30.43,NE,55,3.0,-999.0,0,-99.99,,,0.00,weatherlink.com 1.10,2013-03-01 05:38:00,
2013-02-28 21:53:00,51.1,-99.9,30.44,ENE,60,4.0,-999.0,0,-99.99,,,0.00,weatherlink.com 1.10,2013-03-01 05:53:00,
2013-02-28 22:08:00,51.0,-99.9,30.44,ENE,65,2.0,-999.0,0,-99.99,,,0.00,weatherlink.com 1.10,2013-03-01 06:08:00,
2013-02-28 22:23:00,51.1,-99.9,30.44,ENE,59,4.0,-999.0,0,-99.99,,,0.00,weatherlink.com 1.10,2013-03-01 06:23:00,
2013-02-28 22:38:00,50.8,-99.9,30.44,ENE,57,6.0,-999.0,0,-99.99,,,0.00,weatherlink.com 1.10,2013-03-01 06:38:00,
2013-02-28 22:53:00,50.8,-99.9,30.44,ENE,59,4.0,-999.0,0,-99.99,,,0.00,weatherlink.com 1.10,2013-03-01 06:53:00,
2013-02-28 23:08:00,51.4,-99.9,30.44,NE,44,5.0,-999.0,0,-99.99,,,0.00,weatherlink.com 1.10,2013-03-01 07:08:00,
2013-02-28 23:23:00,50.9,-99.9,30.43,NE,55,3.0,-999.0,0,-99.99,,,0.00,weatherlink.com 1.10,2013-03-01 07:23:00,
2013-02-28 23:38:00,50.5,-99.9,30.43,NE,53,2.0,-999.0,0,-99.99,,,0.00,weatherlink.com 1.10,2013-03-01 07:38:00,
2013-02-28 23:53:00,50.2,-99.9,30.43,ENE,61,4.0,-999.0,0,-99.99,,,0.00,weatherlink.com 1.10,2013-03-01 07:53:00,